Time,TemperatureF,DewpointF,PressureIn,WindDirection,WindDirectionDegrees,WindSpeedMPH,WindSpeedGustMPH,Humidity,HourlyPrecipIn,Conditions,Clouds,dailyrainin,SoftwareType,DateUTC
2013-05-20 00:11:00,71.1,66.0,29.96,SSW,198,12.0,12.0,84,0.00,,,0.00,weatherlink.com 1.10,2013-05-20 04:11:00,
2013-05-20 00:26:00,71.1,66.0,29.96,SSW,211,14.0,15.0,85,0.00,,,0.00,weatherlink.com 1.10,2013-05-20 04:26:00,
2013-05-20 00:41:00,70.7,66.0,29.96,South,184,6.0,14.0,86,0.00,,,0.00,weatherlink.com 1.10,2013-05-20 04:41:00,
2013-05-20 00:56:00,70.5,66.0,29.95,SSW,200,5.0,12.0,86,0.00,,,0.00,weatherlink.com 1.10,2013-05-20 04:56:00,
2013-05-20 01:11:00,70.5,66.0,29.95,SSW,197,5.0,14.0,86,0.00,,,0.00,weatherlink.com 1.10,2013-05-20 05:11:00,
2013-05-20 01:26:00,70.4,66.0,29.95,SSW,202,5.0,12.0,86,0.00,,,0.00,weatherlink.com 1.10,2013-05-20 05:26:00,
2013-05-20 01:42:00,70.4,66.0,29.94,SW,231,6.0,10.0,87,0.00,,,0.00,weatherlink.com 1.10,2013-05-20 05:42:00,
2013-05-20 01:57:00,70.2,66.0,29.93,SSW,204,4.0,11.0,87,0.00,,,0.00,weatherlink.com 1.10,2013-05-20 05:57:00,
2013-05-20 02:12:00,70.0,66.0,29.93,SSW,212,5.0,9.0,87,0.00,,,0.00,weatherlink.com 1.10,2013-05-20 06:12:00,
2013-05-20 02:27:00,69.8,66.0,29.93,SW,217,4.0,8.0,88,0.00,,,0.00,weatherlink.com 1.10,2013-05-20 06:27:00,
2013-05-20 02:42:00,69.6,66.0,29.93,SW,225,6.0,8.0,89,0.00,,,0.00,weatherlink.com 1.10,2013-05-20 06:42:00,
2013-05-20 02:57:00,69.4,66.0,29.92,SSW,211,2.0,7.0,89,0.00,,,0.00,weatherlink.com 1.10,2013-05-20 06:57:00,
2013-05-20 03:13:00,69.3,66.0,29.92,SSW,205,2.0,5.0,90,0.00,,,0.00,weatherlink.com 1.10,2013-05-20 07:13:00,
2013-05-20 03:28:00,69.2,66.0,29.92,South,170,2.0,4.0,90,0.00,,,0.00,weatherlink.com 1.10,2013-05-20 07:28:00,
2013-05-20 03:43:00,68.9,66.0,29.92,SSW,198,2.0,3.0,91,0.00,,,0.00,weatherlink.com 1.10,2013-05-20 07:43:00,
2013-05-20 03:58:00,68.8,66.0,29.92,SSW,195,1.0,2.0,91,0.00,,,0.00,weatherlink.com 1.10,2013-05-20 07:58:00,
2013-05-20 04:13:00,68.6,66.0,29.93,SSE,162,0.0,1.0,92,0.00,,,0.00,weatherlink.com 1.10,2013-05-20 08:13:00,
2013-05-20 04:28:00,68.2,66.0,29.92,SSE,163,0.0,0.0,92,0.00,,,0.00,weatherlink.com 1.10,2013-05-20 08:28:00,
2013-05-20 04:44:00,67.9,66.0,29.92,SE,146,0.0,2.0,93,0.00,,,0.00,weatherlink.com 1.10,2013-05-20 08:44:00,
2013-05-20 04:58:00,67.8,66.0,29.92,SSE,166,1.0,2.0,93,0.00,,,0.00,weatherlink.com 1.10,2013-05-20 08:58:00,
2013-05-20 05:14:00,67.5,66.0,29.92,SSE,167,0.0,1.0,94,0.00,,,0.00,weatherlink.com 1.10,2013-05-20 09:14:00,
2013-05-20 05:29:00,66.9,65.0,29.93,SSE,166,0.0,0.0,94,0.00,,,0.00,weatherlink.com 1.10,2013-05-20 09:29:00,
2013-05-20 05:44:00,66.9,65.0,29.93,SSE,150,0.0,1.0,94,0.00,,,0.00,weatherlink.com 1.10,2013-05-20 09:44:00,
2013-05-20 05:59:00,66.6,65.0,29.94,SSE,158,2.0,2.0,95,0.00,,,0.00,weatherlink.com 1.10,2013-05-20 09:59:00,
2013-05-20 06:14:00,66.9,66.0,29.94,South,172,1.0,2.0,95,0.00,,,0.00,weatherlink.com 1.10,2013-05-20 10:14:00,
2013-05-20 06:29:00,67.4,66.0,29.94,SSW,198,2.0,3.0,95,0.00,,,0.00,weatherlink.com 1.10,2013-05-20 10:29:00,
2013-05-20 06:44:00,68.1,67.0,29.94,SSE,153,2.0,3.0,95,0.00,,,0.00,weatherlink.com 1.10,2013-05-20 10:44:00,
2013-05-20 07:02:00,69.6,68.0,29.95,SE,146,3.0,4.0,94,0.00,,,0.00,weatherlink.com 1.10,2013-05-20 11:02:00,
2013-05-20 07:15:00,70.5,68.0,29.95,SSE,147,3.0,5.0,92,0.00,,,0.00,weatherlink.com 1.10,2013-05-20 11:15:00,
2013-05-20 07:31:00,71.9,69.0,29.95,SSW,211,4.0,6.0,89,0.00,,,0.00,weatherlink.com 1.10,2013-05-20 11:31:00,
2013-05-20 07:45:00,72.8,69.0,29.96,South,181,5.0,8.0,87,0.00,,,0.00,weatherlink.com 1.10,2013-05-20 11:45:00,
2013-05-20 08:02:00,73.6,69.0,29.96,WSW,253,6.0,10.0,86,0.00,,,0.00,weatherlink.com 1.10,2013-05-20 12:02:00,
2013-05-20 08:15:00,74.9,70.0,29.96,SSW,201,3.0,7.0,84,0.00,,,0.00,weatherlink.com 1.10,2013-05-20 12:15:00,
2013-05-20 08:31:00,75.4,69.0,29.96,SSW,200,8.0,11.0,79,0.00,,,0.00,weatherlink.com 1.10,2013-05-20 12:31:00,
2013-05-20 08:46:00,75.7,68.0,29.96,WSW,239,8.0,14.0,78,0.00,,,0.00,weatherlink.com 1.10,2013-05-20 12:46:00,
2013-05-20 09:02:00,75.8,68.0,29.96,WSW,239,7.0,13.0,76,0.00,,,0.00,weatherlink.com 1.10,2013-05-20 13:02:00,
2013-05-20 09:16:00,75.9,67.0,29.96,SW,231,11.0,13.0,75,0.00,,,0.00,weatherlink.com 1.10,2013-05-20 13:16:00,
2013-05-20 09:31:00,75.9,67.0,29.96,SW,228,5.0,18.0,75,0.00,,,0.00,weatherlink.com 1.10,2013-05-20 13:31:00,
2013-05-20 09:46:00,75.8,68.0,29.96,SSW,200,14.0,14.0,76,0.00,,,0.00,weatherlink.com 1.10,2013-05-20 13:46:00,
2013-05-20 10:02:00,76.1,68.0,29.96,West,280,6.0,14.0,76,0.00,,,0.00,weatherlink.com 1.10,2013-05-20 14:02:00,
2013-05-20 10:17:00,76.9,68.0,29.96,SW,226,11.0,13.0,74,0.00,,,0.00,weatherlink.com 1.10,2013-05-20 14:17:00,
2013-05-20 10:32:00,77.3,67.0,29.96,WSW,245,12.0,21.0,70,0.00,,,0.00,weatherlink.com 1.10,2013-05-20 14:32:00,
2013-05-20 10:47:00,78.4,68.0,29.96,SW,219,6.0,18.0,71,0.00,,,0.00,weatherlink.com 1.10,2013-05-20 14:47:00,
2013-05-20 11:03:00,78.1,68.0,29.96,SSW,212,9.0,16.0,70,0.00,,,0.00,weatherlink.com 1.10,2013-05-20 15:03:00,
2013-05-20 11:17:00,78.1,67.0,29.95,SW,236,14.0,18.0,68,0.00,,,0.00,weatherlink.com 1.10,2013-05-20 15:17:00,
2013-05-20 11:32:00,79.0,68.0,29.95,SSW,211,9.0,21.0,69,0.00,,,0.00,weatherlink.com 1.10,2013-05-20 15:32:00,
2013-05-20 11:47:00,79.2,67.0,29.95,WSW,257,5.0,16.0,67,0.00,,,0.00,weatherlink.com 1.10,2013-05-20 15:47:00,
2013-05-20 12:03:00,78.7,67.0,29.94,SSW,200,10.0,16.0,68,0.00,,,0.00,weatherlink.com 1.10,2013-05-20 16:03:00,
2013-05-20 12:17:00,79.2,67.0,29.94,SSW,208,7.0,16.0,67,0.00,,,0.00,weatherlink.com 1.10,2013-05-20 16:17:00,
2013-05-20 12:33:00,79.7,68.0,29.94,WSW,243,13.0,18.0,68,0.00,,,0.00,weatherlink.com 1.10,2013-05-20 16:33:00,
2013-05-20 12:48:00,79.5,68.0,29.93,SSW,200,10.0,20.0,68,0.00,,,0.00,weatherlink.com 1.10,2013-05-20 16:48:00,
2013-05-20 13:03:00,79.1,67.0,29.93,WSW,242,8.0,18.0,66,0.00,,,0.00,weatherlink.com 1.10,2013-05-20 17:03:00,
2013-05-20 13:18:00,79.6,68.0,29.93,WSW,253,8.0,18.0,67,0.00,,,0.00,weatherlink.com 1.10,2013-05-20 17:18:00,
2013-05-20 13:33:00,79.5,67.0,29.93,SW,235,12.0,20.0,66,0.00,,,0.00,weatherlink.com 1.10,2013-05-20 17:33:00,
2013-05-20 13:48:00,79.7,67.0,29.93,SW,235,15.0,19.0,66,0.00,,,0.00,weatherlink.com 1.10,2013-05-20 17:48:00,
2013-05-20 14:04:00,79.5,67.0,29.93,SW,221,9.0,18.0,66,0.00,,,0.00,weatherlink.com 1.10,2013-05-20 18:04:00,
2013-05-20 14:18:00,78.8,67.0,29.92,SSW,195,10.0,18.0,68,0.00,,,0.00,weatherlink.com 1.10,2013-05-20 18:18:00,
2013-05-20 14:34:00,78.7,68.0,29.92,WSW,257,13.0,18.0,69,0.00,,,0.00,weatherlink.com 1.10,2013-05-20 18:34:00,
2013-05-20 14:49:00,78.1,68.0,29.92,SW,231,10.0,16.0,71,0.00,,,0.00,weatherlink.com 1.10,2013-05-20 18:49:00,
2013-05-20 15:04:00,77.6,67.0,29.91,SSW,212,8.0,19.0,69,0.00,,,0.00,weatherlink.com 1.10,2013-05-20 19:04:00,
2013-05-20 15:19:00,78.4,67.0,29.91,SW,224,10.0,19.0,69,0.00,,,0.00,weatherlink.com 1.10,2013-05-20 19:19:00,
2013-05-20 15:34:00,79.0,68.0,29.91,WSW,245,11.0,18.0,68,0.00,,,0.00,weatherlink.com 1.10,2013-05-20 19:34:00,
2013-05-20 15:49:00,78.7,67.0,29.91,South,178,5.0,19.0,68,0.00,,,0.00,weatherlink.com 1.10,2013-05-20 19:49:00,
2013-05-20 16:05:00,78.7,68.0,29.90,SSW,207,7.0,23.0,69,0.00,,,0.00,weatherlink.com 1.10,2013-05-20 20:05:00,
2013-05-20 16:21:00,79.3,67.0,29.90,SSW,210,6.0,22.0,66,0.00,,,0.00,weatherlink.com 1.10,2013-05-20 20:21:00,
2013-05-20 16:35:00,80.4,67.0,29.89,SW,215,3.0,18.0,64,0.00,,,0.00,weatherlink.com 1.10,2013-05-20 20:35:00,
2013-05-20 16:51:00,79.8,68.0,29.90,SW,226,7.0,22.0,67,0.00,,,0.00,weatherlink.com 1.10,2013-05-20 20:51:00,
2013-05-20 17:06:00,78.6,68.0,29.90,WSW,255,10.0,18.0,69,0.00,,,0.00,weatherlink.com 1.10,2013-05-20 21:06:00,
2013-05-20 17:21:00,77.5,67.0,29.90,SW,222,13.0,16.0,70,0.00,,,0.00,weatherlink.com 1.10,2013-05-20 21:21:00,
2013-05-20 17:35:00,77.0,67.0,29.90,SSW,198,5.0,15.0,72,0.00,,,0.00,weatherlink.com 1.10,2013-05-20 21:35:00,
2013-05-20 17:51:00,77.5,67.0,29.89,SSW,203,9.0,17.0,71,0.00,,,0.00,weatherlink.com 1.10,2013-05-20 21:51:00,
2013-05-20 18:06:00,77.8,67.0,29.89,SW,228,7.0,18.0,70,0.00,,,0.00,weatherlink.com 1.10,2013-05-20 22:06:00,
2013-05-20 18:21:00,77.5,68.0,29.89,SW,220,5.0,15.0,72,0.00,,,0.00,weatherlink.com 1.10,2013-05-20 22:21:00,
2013-05-20 18:36:00,77.4,68.0,29.89,WSW,253,10.0,14.0,72,0.00,,,0.00,weatherlink.com 1.10,2013-05-20 22:36:00,
2013-05-20 18:51:00,76.6,68.0,29.88,WSW,248,4.0,17.0,74,0.00,,,0.00,weatherlink.com 1.10,2013-05-20 22:51:00,
2013-05-20 19:07:00,75.6,68.0,29.89,WSW,245,8.0,13.0,76,0.00,,,0.00,weatherlink.com 1.10,2013-05-20 23:07:00,
2013-05-20 19:21:00,75.3,68.0,29.89,SW,214,5.0,10.0,77,0.00,,,0.00,weatherlink.com 1.10,2013-05-20 23:21:00,
2013-05-20 19:36:00,74.8,68.0,29.89,NW,312,1.0,7.0,78,0.00,,,0.00,weatherlink.com 1.10,2013-05-20 23:36:00,
2013-05-20 19:52:00,74.4,68.0,29.89,WSW,243,5.0,7.0,80,0.00,,,0.00,weatherlink.com 1.10,2013-05-20 23:52:00,
2013-05-20 20:07:00,74.2,68.0,29.89,SSW,198,3.0,5.0,80,0.00,,,0.00,weatherlink.com 1.10,2013-05-21 00:07:00,
2013-05-20 20:22:00,73.5,68.0,29.89,SSW,201,2.0,8.0,82,0.00,,,0.00,weatherlink.com 1.10,2013-05-21 00:22:00,
2013-05-20 20:37:00,73.2,68.0,29.89,SSW,212,3.0,6.0,83,0.00,,,0.00,weatherlink.com 1.10,2013-05-21 00:37:00,
2013-05-20 20:52:00,73.1,68.0,29.90,SSW,208,2.0,5.0,83,0.00,,,0.00,weatherlink.com 1.10,2013-05-21 00:52:00,
2013-05-20 21:08:00,72.9,68.0,29.90,SW,218,2.0,8.0,83,0.00,,,0.00,weatherlink.com 1.10,2013-05-21 01:08:00,
2013-05-20 21:22:00,72.5,67.0,29.90,SW,225,3.0,6.0,84,0.00,,,0.00,weatherlink.com 1.10,2013-05-21 01:22:00,
2013-05-20 21:37:00,72.2,67.0,29.90,WSW,240,2.0,6.0,84,0.00,,,0.00,weatherlink.com 1.10,2013-05-21 01:37:00,
2013-05-20 21:52:00,72.3,68.0,29.90,SW,231,1.0,5.0,85,0.00,,,0.00,weatherlink.com 1.10,2013-05-21 01:52:00,
2013-05-20 22:08:00,71.9,68.0,29.90,SW,215,4.0,5.0,86,0.00,,,0.00,weatherlink.com 1.10,2013-05-21 02:08:00,
2013-05-20 22:23:00,71.6,67.0,29.90,SSW,207,3.0,6.0,86,0.00,,,0.00,weatherlink.com 1.10,2013-05-21 02:23:00,
2013-05-20 22:38:00,71.5,67.0,29.89,SW,221,3.0,4.0,86,0.00,,,0.00,weatherlink.com 1.10,2013-05-21 02:38:00,
2013-05-20 22:53:00,71.4,67.0,29.89,SW,233,3.0,4.0,86,0.00,,,0.00,weatherlink.com 1.10,2013-05-21 02:53:00,
2013-05-20 23:09:00,71.6,67.0,29.89,SSW,211,1.0,4.0,86,0.00,,,0.00,weatherlink.com 1.10,2013-05-21 03:09:00,
2013-05-20 23:23:00,71.5,67.0,29.89,South,187,3.0,5.0,86,0.00,,,0.00,weatherlink.com 1.10,2013-05-21 03:23:00,
2013-05-20 23:38:00,71.3,67.0,29.89,SSW,212,3.0,4.0,87,0.00,,,0.00,weatherlink.com 1.10,2013-05-21 03:38:00,